METAR Data

Data at: 0942 UTC 23 Jan 2019

METAR for:KLGA (New York/La Guardia, NY, US)
Text:KLGA 230851Z 21008KT 10SM BKN150 OVC200 M01/M10 A3045 RMK AO2 SLP310 T10061100 58026
Temperature: -0.6°C ( 31°F)
Dewpoint:-10.0°C ( 14°F) [RH = 49%]
Pressure (altimeter):30.45 inches Hg (1031.2 mb) [Sea level pressure: 1031.0 mb]
Winds:from the SSW (210 degrees) at 9 MPH (8 knots; 4.1 m/s)
Visibility:10 or more sm (16+ km)
Ceiling:15000 feet AGL
Clouds: broken clouds at 15000 feet AGL, overcast cloud deck at 20000 feet AGL